»·PEaware :: N15644 KPSP-KPMD

N15644 :: KPSP-KPMD

FLIGHT INFORMATION

Flight Status: Arrived
Operator: Privately registered:
United States
More flights under this callsign
Pilot: Anonymous 20125 (20125)
Aircraft: BEECH AIRCRAFT BONANZA
(BE36)
More flights by this aircraft type
Origin: KPSP Palm Springs Intl
United States
Destination: KPMD Palmdale AF Plant 42
United States
More flights between these airports :: More routes between these airports
Route:
File this flight plan on PilotEdge
Remarks:
Altitude:
(Current/Filed)
10,500ft
Speed:
(Current/Filed)
165kts
Departed: 01-Feb-21 06:24 PM
Arrived: 01-Feb-21 07:04 PM
Distance/Time
Traveled:
92nm/0:39
Distance/Time
To Go:
Arrived

Flight Plot

Page will automatically refresh every two minutes.

Flight plan parsing failed; only flown route is shown


Map Options




Map Legend


Flown Route
Filed Route
Departure Airport
Arrival Airport
Navaid (VOR, NDB)
Fix

Horizontal Profiles

Position Reports

Time Latitude Longitude Heading Altitude Ground
Speed
01-Feb-21 17:57 33.823693 -116.507600 204 422ft 0kts
01-Feb-21 17:58 33.823693 -116.507600 204 422ft 0kts
01-Feb-21 17:59 33.823693 -116.507600 204 422ft 0kts
01-Feb-21 18:00 33.823692 -116.507600 204 422ft 0kts
01-Feb-21 18:01 33.823692 -116.507600 204 422ft 0kts
01-Feb-21 18:02 33.823692 -116.507600 204 422ft 0kts
01-Feb-21 18:03 33.823693 -116.507600 204 422ft 0kts
01-Feb-21 18:04 33.823693 -116.507600 204 422ft 0kts
01-Feb-21 18:05 33.823693 -116.507600 204 422ft 0kts
01-Feb-21 18:06 33.823693 -116.507600 204 422ft 0kts
01-Feb-21 18:07 33.823693 -116.507600 204 422ft 0kts
01-Feb-21 18:08 33.823693 -116.507600 204 422ft 0kts
01-Feb-21 18:09 33.823693 -116.507600 204 422ft 0kts
01-Feb-21 18:10 33.823693 -116.507600 204 422ft 0kts
01-Feb-21 18:11 33.823693 -116.507600 204 422ft 0kts
01-Feb-21 18:12 33.823690 -116.507634 357 422ft 0kts
01-Feb-21 18:13 33.823690 -116.507634 357 422ft 0kts
01-Feb-21 18:14 33.823690 -116.507634 357 422ft 0kts
01-Feb-21 18:15 33.823690 -116.507634 357 422ft 0kts
01-Feb-21 18:16 33.823690 -116.507634 357 422ft 0kts
01-Feb-21 18:17 33.823835 -116.507558 35 422ft 7kts
01-Feb-21 18:18 33.824421 -116.505943 89 423ft 1kts
01-Feb-21 18:19 33.822924 -116.504279 63 415ft 10kts
01-Feb-21 18:20 33.820327 -116.501392 143 408ft 12kts
01-Feb-21 18:21 33.818546 -116.498933 93 401ft 8kts
01-Feb-21 18:22 33.818542 -116.498868 93 401ft 0kts
01-Feb-21 18:23 33.820249 -116.499379 325 405ft 55kts
01-Feb-21 18:24 33.844163 -116.520253 324 1555ft 122kts
01-Feb-21 18:25 33.868873 -116.548144 298 3110ft 123kts
01-Feb-21 18:27 33.882745 -116.586829 288 4307ft 127kts
01-Feb-21 18:28 33.896714 -116.626023 304 5214ft 130kts
01-Feb-21 18:29 33.912656 -116.665828 295 6004ft 131kts
01-Feb-21 18:30 33.931610 -116.703228 300 6778ft 129kts
01-Feb-21 18:31 33.950116 -116.739530 301 7460ft 125kts
01-Feb-21 18:32 33.968500 -116.775240 300 8057ft 126kts
01-Feb-21 18:33 33.987842 -116.812835 300 8672ft 135kts
01-Feb-21 18:34 34.007915 -116.851997 300 9296ft 138kts
01-Feb-21 18:35 34.028198 -116.891545 300 9906ft 138kts
01-Feb-21 18:36 34.048716 -116.931600 300 10395ft 147kts
01-Feb-21 18:37 34.071669 -116.976486 300 10442ft 162kts
01-Feb-21 18:38 34.095557 -117.023268 300 10436ft 164kts
01-Feb-21 18:39 34.119592 -117.070369 300 10434ft 164kts
01-Feb-21 18:40 34.143519 -117.117319 300 10443ft 164kts
01-Feb-21 18:41 34.167424 -117.164283 300 10441ft 164kts
01-Feb-21 18:41 34.187343 -117.203461 300 10442ft 164kts
01-Feb-21 18:43 34.215163 -117.258273 300 10446ft 161kts
01-Feb-21 18:43 34.234492 -117.296426 300 10446ft 158kts
01-Feb-21 18:44 34.257210 -117.341289 300 10444ft 156kts
01-Feb-21 18:46 34.283567 -117.393415 300 10435ft 154kts
01-Feb-21 18:46 34.302302 -117.430516 300 10438ft 155kts
01-Feb-21 18:47 34.324735 -117.474975 300 10443ft 155kts
01-Feb-21 18:48 34.347275 -117.519721 300 10444ft 155kts
01-Feb-21 18:49 34.371054 -117.566981 300 10041ft 173kts
01-Feb-21 18:50 34.396460 -117.617570 300 9541ft 177kts
01-Feb-21 18:51 34.422276 -117.669013 300 9029ft 179kts
01-Feb-21 18:52 34.448220 -117.720792 300 8525ft 180kts
01-Feb-21 18:53 34.473745 -117.771804 300 8018ft 169kts
01-Feb-21 18:54 34.497681 -117.819732 300 7515ft 164kts
01-Feb-21 18:55 34.521418 -117.867299 300 6600ft 165kts
01-Feb-21 18:56 34.545283 -117.915194 300 5598ft 165kts
01-Feb-21 18:57 34.567893 -117.960670 302 4588ft 151kts
01-Feb-21 18:58 34.588297 -117.992386 7 3631ft 141kts
01-Feb-21 18:59 34.620751 -117.987984 328 3319ft 105kts
01-Feb-21 19:00 34.631528 -118.017282 280 3151ft 95kts
01-Feb-21 19:01 34.633756 -118.050778 267 2859ft 96kts
01-Feb-21 19:02 34.632430 -118.079598 262 2508ft 58kts
01-Feb-21 19:03 34.631926 -118.087915 259 2519ft 10kts
01-Feb-21 19:04 34.628555 -118.089313 187 2520ft 15kts
01-Feb-21 19:05 34.625613 -118.089580 183 2528ft 7kts

Navigation Log

Ident Type
Flight plan parsing failed, navigation log unavailable